sensor_id;sensor_type;location;lat;lon;timestamp;temperature;humidity
46356;DHT22;32066;49.474;11.106;2024-02-28T00:00:31;10.80;92.90
46356;DHT22;32066;49.474;11.106;2024-02-28T00:02:59;10.80;92.90
46356;DHT22;32066;49.474;11.106;2024-02-28T00:05:28;10.90;92.90
46356;DHT22;32066;49.474;11.106;2024-02-28T00:07:57;10.80;92.90
46356;DHT22;32066;49.474;11.106;2024-02-28T00:10:25;10.80;92.80
46356;DHT22;32066;49.474;11.106;2024-02-28T00:12:54;10.90;92.90
46356;DHT22;32066;49.474;11.106;2024-02-28T00:15:26;10.90;92.90
46356;DHT22;32066;49.474;11.106;2024-02-28T00:17:54;10.80;92.80
46356;DHT22;32066;49.474;11.106;2024-02-28T00:20:24;10.80;92.80
46356;DHT22;32066;49.474;11.106;2024-02-28T00:22:53;10.80;92.80
46356;DHT22;32066;49.474;11.106;2024-02-28T00:25:21;10.80;92.80
46356;DHT22;32066;49.474;11.106;2024-02-28T00:27:50;10.80;92.80
46356;DHT22;32066;49.474;11.106;2024-02-28T00:30:19;10.80;92.80
46356;DHT22;32066;49.474;11.106;2024-02-28T00:32:50;10.80;92.80
46356;DHT22;32066;49.474;11.106;2024-02-28T00:35:18;10.80;92.70
46356;DHT22;32066;49.474;11.106;2024-02-28T00:37:47;10.80;92.80
46356;DHT22;32066;49.474;11.106;2024-02-28T00:40:16;10.80;92.80
46356;DHT22;32066;49.474;11.106;2024-02-28T00:42:44;10.80;92.80
46356;DHT22;32066;49.474;11.106;2024-02-28T00:45:14;10.80;92.80
46356;DHT22;32066;49.474;11.106;2024-02-28T00:47:42;10.80;92.70
46356;DHT22;32066;49.474;11.106;2024-02-28T00:50:14;10.80;92.70
46356;DHT22;32066;49.474;11.106;2024-02-28T00:52:42;10.80;92.70
46356;DHT22;32066;49.474;11.106;2024-02-28T00:55:11;10.80;92.70
46356;DHT22;32066;49.474;11.106;2024-02-28T00:57:39;10.80;92.70
46356;DHT22;32066;49.474;11.106;2024-02-28T01:00:09;10.80;92.70
46356;DHT22;32066;49.474;11.106;2024-02-28T01:02:39;10.80;92.70
46356;DHT22;32066;49.474;11.106;2024-02-28T01:05:08;10.80;92.70
46356;DHT22;32066;49.474;11.106;2024-02-28T01:07:40;10.80;92.70
46356;DHT22;32066;49.474;11.106;2024-02-28T01:10:09;10.80;92.70
46356;DHT22;32066;49.474;11.106;2024-02-28T01:12:38;10.80;92.70
46356;DHT22;32066;49.474;11.106;2024-02-28T01:15:07;10.80;92.70
46356;DHT22;32066;49.474;11.106;2024-02-28T01:17:36;10.80;92.70
46356;DHT22;32066;49.474;11.106;2024-02-28T01:20:06;10.80;92.70
46356;DHT22;32066;49.474;11.106;2024-02-28T01:22:34;10.80;92.60
46356;DHT22;32066;49.474;11.106;2024-02-28T01:25:04;10.80;92.70
46356;DHT22;32066;49.474;11.106;2024-02-28T01:27:32;10.80;92.60
46356;DHT22;32066;49.474;11.106;2024-02-28T01:30:01;10.80;92.60
46356;DHT22;32066;49.474;11.106;2024-02-28T01:32:30;10.80;92.70
46356;DHT22;32066;49.474;11.106;2024-02-28T01:34:58;10.80;92.70
46356;DHT22;32066;49.474;11.106;2024-02-28T01:37:28;10.80;92.60
46356;DHT22;32066;49.474;11.106;2024-02-28T01:39:56;10.80;92.60
46356;DHT22;32066;49.474;11.106;2024-02-28T01:42:28;10.80;92.60
46356;DHT22;32066;49.474;11.106;2024-02-28T01:44:56;10.80;92.90
46356;DHT22;32066;49.474;11.106;2024-02-28T01:47:25;10.80;92.60
46356;DHT22;32066;49.474;11.106;2024-02-28T01:49:54;10.80;92.60
46356;DHT22;32066;49.474;11.106;2024-02-28T01:52:23;10.80;92.60
46356;DHT22;32066;49.474;11.106;2024-02-28T01:54:51;10.80;92.60
46356;DHT22;32066;49.474;11.106;2024-02-28T01:57:21;10.80;92.60
46356;DHT22;32066;49.474;11.106;2024-02-28T01:59:53;10.80;92.60
46356;DHT22;32066;49.474;11.106;2024-02-28T02:02:22;10.80;92.60
46356;DHT22;32066;49.474;11.106;2024-02-28T02:04:51;10.70;92.60
46356;DHT22;32066;49.474;11.106;2024-02-28T02:07:21;10.80;92.50
46356;DHT22;32066;49.474;11.106;2024-02-28T02:09:50;10.80;92.50
46356;DHT22;32066;49.474;11.106;2024-02-28T02:12:19;10.80;92.60
46356;DHT22;32066;49.474;11.106;2024-02-28T02:14:48;10.80;92.50
46356;DHT22;32066;49.474;11.106;2024-02-28T02:17:19;10.70;92.50
46356;DHT22;32066;49.474;11.106;2024-02-28T02:19:48;10.80;92.50
46356;DHT22;32066;49.474;11.106;2024-02-28T02:22:17;10.70;92.40
46356;DHT22;32066;49.474;11.106;2024-02-28T02:24:48;10.70;92.40
46356;DHT22;32066;49.474;11.106;2024-02-28T02:27:17;10.70;92.40
46356;DHT22;32066;49.474;11.106;2024-02-28T02:29:46;10.70;92.40
46356;DHT22;32066;49.474;11.106;2024-02-28T02:32:15;10.70;92.40
46356;DHT22;32066;49.474;11.106;2024-02-28T02:34:43;10.70;92.40
46356;DHT22;32066;49.474;11.106;2024-02-28T02:37:12;10.70;92.40
46356;DHT22;32066;49.474;11.106;2024-02-28T02:39:41;10.70;92.40
46356;DHT22;32066;49.474;11.106;2024-02-28T02:42:12;10.70;92.40
46356;DHT22;32066;49.474;11.106;2024-02-28T02:44:42;10.70;92.40
46356;DHT22;32066;49.474;11.106;2024-02-28T02:47:11;10.70;92.40
46356;DHT22;32066;49.474;11.106;2024-02-28T02:49:39;10.70;92.40
46356;DHT22;32066;49.474;11.106;2024-02-28T02:52:08;10.70;92.40
46356;DHT22;32066;49.474;11.106;2024-02-28T02:54:37;10.70;92.40
46356;DHT22;32066;49.474;11.106;2024-02-28T02:57:05;10.70;92.40
46356;DHT22;32066;49.474;11.106;2024-02-28T02:59:36;10.70;92.40
46356;DHT22;32066;49.474;11.106;2024-02-28T03:02:05;10.70;92.30
46356;DHT22;32066;49.474;11.106;2024-02-28T03:04:34;10.70;92.40
46356;DHT22;32066;49.474;11.106;2024-02-28T03:07:02;10.70;92.30
46356;DHT22;32066;49.474;11.106;2024-02-28T03:09:31;10.70;92.30
46356;DHT22;32066;49.474;11.106;2024-02-28T03:12:00;10.70;92.30
46356;DHT22;32066;49.474;11.106;2024-02-28T03:14:28;10.70;92.30
46356;DHT22;32066;49.474;11.106;2024-02-28T03:16:59;10.70;92.30
46356;DHT22;32066;49.474;11.106;2024-02-28T03:19:28;10.70;92.40
46356;DHT22;32066;49.474;11.106;2024-02-28T03:21:57;10.70;92.40
46356;DHT22;32066;49.474;11.106;2024-02-28T03:24:25;10.60;92.40
46356;DHT22;32066;49.474;11.106;2024-02-28T03:26:54;10.60;92.40
46356;DHT22;32066;49.474;11.106;2024-02-28T03:29:23;10.70;92.40
46356;DHT22;32066;49.474;11.106;2024-02-28T03:31:51;10.60;92.40
46356;DHT22;32066;49.474;11.106;2024-02-28T03:34:22;10.60;92.40
46356;DHT22;32066;49.474;11.106;2024-02-28T03:36:51;10.60;92.40
46356;DHT22;32066;49.474;11.106;2024-02-28T03:39:20;10.60;92.40
46356;DHT22;32066;49.474;11.106;2024-02-28T03:41:48;10.60;92.40
46356;DHT22;32066;49.474;11.106;2024-02-28T03:44:17;10.60;92.40
46356;DHT22;32066;49.474;11.106;2024-02-28T03:46:47;10.60;92.40
46356;DHT22;32066;49.474;11.106;2024-02-28T03:49:15;10.60;92.40
46356;DHT22;32066;49.474;11.106;2024-02-28T03:51:47;10.60;92.40
46356;DHT22;32066;49.474;11.106;2024-02-28T03:54:15;10.60;92.40
46356;DHT22;32066;49.474;11.106;2024-02-28T03:56:44;10.60;92.40
46356;DHT22;32066;49.474;11.106;2024-02-28T03:59:13;10.60;92.40
46356;DHT22;32066;49.474;11.106;2024-02-28T04:01:41;10.60;92.40
46356;DHT22;32066;49.474;11.106;2024-02-28T04:04:10;10.60;92.40
46356;DHT22;32066;49.474;11.106;2024-02-28T04:06:39;10.60;92.60
46356;DHT22;32066;49.474;11.106;2024-02-28T04:09:10;10.60;92.40
46356;DHT22;32066;49.474;11.106;2024-02-28T04:11:38;10.60;92.40
46356;DHT22;32066;49.474;11.106;2024-02-28T04:14:08;10.60;92.40
46356;DHT22;32066;49.474;11.106;2024-02-28T04:16:41;10.60;92.40
46356;DHT22;32066;49.474;11.106;2024-02-28T04:19:10;10.60;92.40
46356;DHT22;32066;49.474;11.106;2024-02-28T04:21:39;10.60;92.40
46356;DHT22;32066;49.474;11.106;2024-02-28T04:24:10;10.60;92.40
46356;DHT22;32066;49.474;11.106;2024-02-28T04:26:39;10.60;92.40
46356;DHT22;32066;49.474;11.106;2024-02-28T04:29:07;10.60;92.40
46356;DHT22;32066;49.474;11.106;2024-02-28T04:31:39;10.60;92.30
46356;DHT22;32066;49.474;11.106;2024-02-28T04:34:08;10.60;92.50
46356;DHT22;32066;49.474;11.106;2024-02-28T04:36:36;10.60;92.70
46356;DHT22;32066;49.474;11.106;2024-02-28T04:39:05;10.60;92.90
46356;DHT22;32066;49.474;11.106;2024-02-28T04:41:37;10.60;93.20
46356;DHT22;32066;49.474;11.106;2024-02-28T04:44:05;10.60;93.00
46356;DHT22;32066;49.474;11.106;2024-02-28T04:46:34;10.50;93.00
46356;DHT22;32066;49.474;11.106;2024-02-28T04:49:03;10.50;92.90
46356;DHT22;32066;49.474;11.106;2024-02-28T04:51:31;10.50;92.80
46356;DHT22;32066;49.474;11.106;2024-02-28T04:54:00;10.50;92.80
46356;DHT22;32066;49.474;11.106;2024-02-28T04:56:28;10.50;92.70
46356;DHT22;32066;49.474;11.106;2024-02-28T04:59:00;10.50;92.80
46356;DHT22;32066;49.474;11.106;2024-02-28T05:01:29;10.50;92.70
46356;DHT22;32066;49.474;11.106;2024-02-28T05:03:57;10.50;92.70
46356;DHT22;32066;49.474;11.106;2024-02-28T05:06:26;10.50;92.60
46356;DHT22;32066;49.474;11.106;2024-02-28T05:08:55;10.50;92.60
46356;DHT22;32066;49.474;11.106;2024-02-28T05:11:24;10.50;92.60
46356;DHT22;32066;49.474;11.106;2024-02-28T05:13:52;10.50;92.50
46356;DHT22;32066;49.474;11.106;2024-02-28T05:16:24;10.50;92.50
46356;DHT22;32066;49.474;11.106;2024-02-28T05:18:55;10.50;92.60
46356;DHT22;32066;49.474;11.106;2024-02-28T05:21:24;10.50;92.60
46356;DHT22;32066;49.474;11.106;2024-02-28T05:23:53;10.50;92.60
46356;DHT22;32066;49.474;11.106;2024-02-28T05:26:22;10.50;92.60
46356;DHT22;32066;49.474;11.106;2024-02-28T05:28:51;10.50;92.50
46356;DHT22;32066;49.474;11.106;2024-02-28T05:31:24;10.50;92.50
46356;DHT22;32066;49.474;11.106;2024-02-28T05:33:56;10.50;92.50
46356;DHT22;32066;49.474;11.106;2024-02-28T05:36:26;10.50;92.50
46356;DHT22;32066;49.474;11.106;2024-02-28T05:38:57;10.50;92.50
46356;DHT22;32066;49.474;11.106;2024-02-28T05:41:26;10.50;92.50
46356;DHT22;32066;49.474;11.106;2024-02-28T05:43:55;10.50;92.50
46356;DHT22;32066;49.474;11.106;2024-02-28T05:46:26;10.50;92.40
46356;DHT22;32066;49.474;11.106;2024-02-28T05:48:55;10.40;92.50
46356;DHT22;32066;49.474;11.106;2024-02-28T05:51:24;10.40;92.50
46356;DHT22;32066;49.474;11.106;2024-02-28T05:53:52;10.40;92.50
46356;DHT22;32066;49.474;11.106;2024-02-28T05:56:21;10.40;92.50
46356;DHT22;32066;49.474;11.106;2024-02-28T05:58:50;10.40;92.40
46356;DHT22;32066;49.474;11.106;2024-02-28T06:01:18;10.40;92.40
46356;DHT22;32066;49.474;11.106;2024-02-28T06:03:50;10.40;92.50
46356;DHT22;32066;49.474;11.106;2024-02-28T06:06:19;10.40;92.70
46356;DHT22;32066;49.474;11.106;2024-02-28T06:08:48;10.40;92.50
46356;DHT22;32066;49.474;11.106;2024-02-28T06:11:16;10.40;92.40
46356;DHT22;32066;49.474;11.106;2024-02-28T06:13:45;10.40;92.50
46356;DHT22;32066;49.474;11.106;2024-02-28T06:16:15;10.40;92.50
46356;DHT22;32066;49.474;11.106;2024-02-28T06:18:44;10.40;92.50
46356;DHT22;32066;49.474;11.106;2024-02-28T06:21:15;10.40;92.40
46356;DHT22;32066;49.474;11.106;2024-02-28T06:23:44;10.40;92.50
46356;DHT22;32066;49.474;11.106;2024-02-28T06:26:13;10.40;92.50
46356;DHT22;32066;49.474;11.106;2024-02-28T06:28:43;10.40;92.50
46356;DHT22;32066;49.474;11.106;2024-02-28T06:31:14;10.40;92.50
46356;DHT22;32066;49.474;11.106;2024-02-28T06:33:43;10.40;92.80
46356;DHT22;32066;49.474;11.106;2024-02-28T06:36:14;10.40;92.40
46356;DHT22;32066;49.474;11.106;2024-02-28T06:38:43;10.40;92.50
46356;DHT22;32066;49.474;11.106;2024-02-28T06:41:11;10.40;92.50
46356;DHT22;32066;49.474;11.106;2024-02-28T06:43:40;10.40;92.50
46356;DHT22;32066;49.474;11.106;2024-02-28T06:46:11;10.40;92.40
46356;DHT22;32066;49.474;11.106;2024-02-28T06:48:40;10.40;92.70
46356;DHT22;32066;49.474;11.106;2024-02-28T06:51:08;10.40;92.50
46356;DHT22;32066;49.474;11.106;2024-02-28T06:53:40;10.40;92.40
46356;DHT22;32066;49.474;11.106;2024-02-28T06:56:08;10.40;92.50
46356;DHT22;32066;49.474;11.106;2024-02-28T06:58:37;10.40;92.50
46356;DHT22;32066;49.474;11.106;2024-02-28T07:01:06;10.40;92.50
46356;DHT22;32066;49.474;11.106;2024-02-28T07:03:35;10.40;92.50
46356;DHT22;32066;49.474;11.106;2024-02-28T07:06:04;10.40;92.50
46356;DHT22;32066;49.474;11.106;2024-02-28T07:08:32;10.40;92.50
46356;DHT22;32066;49.474;11.106;2024-02-28T07:11:04;10.40;92.50
46356;DHT22;32066;49.474;11.106;2024-02-28T07:13:32;10.40;92.50
46356;DHT22;32066;49.474;11.106;2024-02-28T07:16:01;10.40;92.50
46356;DHT22;32066;49.474;11.106;2024-02-28T07:18:30;10.30;92.50
46356;DHT22;32066;49.474;11.106;2024-02-28T07:20:58;10.40;92.60
46356;DHT22;32066;49.474;11.106;2024-02-28T07:23:27;10.40;92.60
46356;DHT22;32066;49.474;11.106;2024-02-28T07:25:56;10.40;92.50
46356;DHT22;32066;49.474;11.106;2024-02-28T07:28:27;10.40;92.50
46356;DHT22;32066;49.474;11.106;2024-02-28T07:30:56;10.40;92.50
46356;DHT22;32066;49.474;11.106;2024-02-28T07:33:24;10.40;92.50
46356;DHT22;32066;49.474;11.106;2024-02-28T07:35:53;10.40;92.60
46356;DHT22;32066;49.474;11.106;2024-02-28T07:38:26;10.40;92.50
46356;DHT22;32066;49.474;11.106;2024-02-28T07:40:56;10.40;92.50
46356;DHT22;32066;49.474;11.106;2024-02-28T07:43:27;10.40;92.60
46356;DHT22;32066;49.474;11.106;2024-02-28T07:45:58;10.50;92.60
46356;DHT22;32066;49.474;11.106;2024-02-28T07:48:27;10.40;92.60
46356;DHT22;32066;49.474;11.106;2024-02-28T07:50:55;10.50;92.50
46356;DHT22;32066;49.474;11.106;2024-02-28T07:53:24;10.50;92.60
46356;DHT22;32066;49.474;11.106;2024-02-28T07:55:52;10.50;92.60
46356;DHT22;32066;49.474;11.106;2024-02-28T07:58:21;10.50;92.50
46356;DHT22;32066;49.474;11.106;2024-02-28T08:00:53;10.50;92.50
46356;DHT22;32066;49.474;11.106;2024-02-28T08:03:21;10.50;92.50
46356;DHT22;32066;49.474;11.106;2024-02-28T08:05:50;10.50;92.60
46356;DHT22;32066;49.474;11.106;2024-02-28T08:08:19;10.50;92.70
46356;DHT22;32066;49.474;11.106;2024-02-28T08:10:47;10.50;92.70
46356;DHT22;32066;49.474;11.106;2024-02-28T08:13:19;10.50;92.60
46356;DHT22;32066;49.474;11.106;2024-02-28T08:15:48;10.50;92.60
46356;DHT22;32066;49.474;11.106;2024-02-28T08:18:19;10.50;92.60
46356;DHT22;32066;49.474;11.106;2024-02-28T08:20:48;10.60;92.60
46356;DHT22;32066;49.474;11.106;2024-02-28T08:23:18;10.60;92.70
46356;DHT22;32066;49.474;11.106;2024-02-28T08:25:47;10.60;92.70
46356;DHT22;32066;49.474;11.106;2024-02-28T08:28:16;10.60;92.60
46356;DHT22;32066;49.474;11.106;2024-02-28T08:30:44;10.60;92.70
46356;DHT22;32066;49.474;11.106;2024-02-28T08:33:13;10.60;92.60
46356;DHT22;32066;49.474;11.106;2024-02-28T08:35:44;10.60;92.60
46356;DHT22;32066;49.474;11.106;2024-02-28T08:38:15;10.60;92.60
46356;DHT22;32066;49.474;11.106;2024-02-28T08:40:44;10.60;92.60
46356;DHT22;32066;49.474;11.106;2024-02-28T08:43:13;10.60;92.60
46356;DHT22;32066;49.474;11.106;2024-02-28T08:45:42;10.60;92.60
46356;DHT22;32066;49.474;11.106;2024-02-28T08:48:10;10.60;92.60
46356;DHT22;32066;49.474;11.106;2024-02-28T08:50:39;10.60;92.50
46356;DHT22;32066;49.474;11.106;2024-02-28T08:53:10;10.70;92.50
46356;DHT22;32066;49.474;11.106;2024-02-28T08:55:39;10.70;92.50
46356;DHT22;32066;49.474;11.106;2024-02-28T08:58:08;10.70;92.50
46356;DHT22;32066;49.474;11.106;2024-02-28T09:00:37;10.70;92.50
46356;DHT22;32066;49.474;11.106;2024-02-28T09:03:05;10.70;92.50
46356;DHT22;32066;49.474;11.106;2024-02-28T09:05:34;10.70;92.50
46356;DHT22;32066;49.474;11.106;2024-02-28T09:08:03;10.70;92.40
46356;DHT22;32066;49.474;11.106;2024-02-28T09:10:34;10.70;92.40
46356;DHT22;32066;49.474;11.106;2024-02-28T09:13:03;10.70;92.40
46356;DHT22;32066;49.474;11.106;2024-02-28T09:15:32;10.70;92.40
46356;DHT22;32066;49.474;11.106;2024-02-28T09:18:01;10.70;92.40
46356;DHT22;32066;49.474;11.106;2024-02-28T09:20:30;10.70;92.40
46356;DHT22;32066;49.474;11.106;2024-02-28T09:22:58;10.70;92.30
46356;DHT22;32066;49.474;11.106;2024-02-28T09:25:27;10.70;92.30
46356;DHT22;32066;49.474;11.106;2024-02-28T09:27:59;10.70;92.30
46356;DHT22;32066;49.474;11.106;2024-02-28T09:30:28;10.70;92.30
46356;DHT22;32066;49.474;11.106;2024-02-28T09:32:57;10.70;92.20
46356;DHT22;32066;49.474;11.106;2024-02-28T09:35:26;10.70;92.30
46356;DHT22;32066;49.474;11.106;2024-02-28T09:37:54;10.80;92.20
46356;DHT22;32066;49.474;11.106;2024-02-28T09:40:23;10.80;92.20
46356;DHT22;32066;49.474;11.106;2024-02-28T09:43:00;10.70;92.30
46356;DHT22;32066;49.474;11.106;2024-02-28T09:45:30;10.80;92.20
46356;DHT22;32066;49.474;11.106;2024-02-28T09:47:59;10.80;92.20
46356;DHT22;32066;49.474;11.106;2024-02-28T09:50:29;10.80;92.20
46356;DHT22;32066;49.474;11.106;2024-02-28T09:52:58;10.80;92.20
46356;DHT22;32066;49.474;11.106;2024-02-28T09:55:27;10.80;92.20
46356;DHT22;32066;49.474;11.106;2024-02-28T09:57:56;10.80;92.20
46356;DHT22;32066;49.474;11.106;2024-02-28T10:00:28;10.80;92.20
46356;DHT22;32066;49.474;11.106;2024-02-28T10:02:57;10.80;92.10
46356;DHT22;32066;49.474;11.106;2024-02-28T10:05:26;10.80;92.10
46356;DHT22;32066;49.474;11.106;2024-02-28T10:07:55;10.80;92.10
46356;DHT22;32066;49.474;11.106;2024-02-28T10:10:24;10.90;92.10
46356;DHT22;32066;49.474;11.106;2024-02-28T10:12:53;10.90;92.10
46356;DHT22;32066;49.474;11.106;2024-02-28T10:15:22;10.90;92.10
46356;DHT22;32066;49.474;11.106;2024-02-28T10:17:54;11.00;92.10
46356;DHT22;32066;49.474;11.106;2024-02-28T10:20:22;10.90;92.00
46356;DHT22;32066;49.474;11.106;2024-02-28T10:22:52;11.00;92.00
46356;DHT22;32066;49.474;11.106;2024-02-28T10:25:21;11.00;92.10
46356;DHT22;32066;49.474;11.106;2024-02-28T10:27:51;11.00;92.00
46356;DHT22;32066;49.474;11.106;2024-02-28T10:30:20;11.00;92.00
46356;DHT22;32066;49.474;11.106;2024-02-28T10:32:49;11.00;92.00
46356;DHT22;32066;49.474;11.106;2024-02-28T10:35:20;11.10;92.10
46356;DHT22;32066;49.474;11.106;2024-02-28T10:37:51;11.10;92.00
46356;DHT22;32066;49.474;11.106;2024-02-28T10:40:20;11.10;92.00
46356;DHT22;32066;49.474;11.106;2024-02-28T10:42:49;11.10;92.00
46356;DHT22;32066;49.474;11.106;2024-02-28T10:45:18;11.10;91.90
46356;DHT22;32066;49.474;11.106;2024-02-28T10:47:49;11.20;92.00
46356;DHT22;32066;49.474;11.106;2024-02-28T10:50:21;11.20;91.90
46356;DHT22;32066;49.474;11.106;2024-02-28T10:52:51;11.20;91.90
46356;DHT22;32066;49.474;11.106;2024-02-28T10:55:21;11.20;91.80
46356;DHT22;32066;49.474;11.106;2024-02-28T10:57:58;11.30;91.90
46356;DHT22;32066;49.474;11.106;2024-02-28T11:00:29;11.30;91.80
46356;DHT22;32066;49.474;11.106;2024-02-28T11:02:59;11.30;91.80
46356;DHT22;32066;49.474;11.106;2024-02-28T11:05:38;11.30;91.80
46356;DHT22;32066;49.474;11.106;2024-02-28T11:08:08;11.30;91.80
46356;DHT22;32066;49.474;11.106;2024-02-28T11:10:41;11.40;91.80
46356;DHT22;32066;49.474;11.106;2024-02-28T11:13:23;11.40;91.70
46356;DHT22;32066;49.474;11.106;2024-02-28T11:15:52;11.40;91.70
46356;DHT22;32066;49.474;11.106;2024-02-28T11:18:21;11.40;91.70
46356;DHT22;32066;49.474;11.106;2024-02-28T11:20:53;11.40;91.70
46356;DHT22;32066;49.474;11.106;2024-02-28T11:23:21;11.40;91.70
46356;DHT22;32066;49.474;11.106;2024-02-28T11:25:54;11.50;91.70
46356;DHT22;32066;49.474;11.106;2024-02-28T11:28:24;11.50;91.60
46356;DHT22;32066;49.474;11.106;2024-02-28T11:30:55;11.50;91.60
46356;DHT22;32066;49.474;11.106;2024-02-28T11:33:23;11.50;91.60
46356;DHT22;32066;49.474;11.106;2024-02-28T11:35:58;11.50;91.60
46356;DHT22;32066;49.474;11.106;2024-02-28T11:38:29;11.50;91.60
46356;DHT22;32066;49.474;11.106;2024-02-28T11:40:58;11.50;91.60
46356;DHT22;32066;49.474;11.106;2024-02-28T11:43:26;11.50;91.60
46356;DHT22;32066;49.474;11.106;2024-02-28T11:45:55;11.50;91.60
46356;DHT22;32066;49.474;11.106;2024-02-28T11:48:25;11.50;91.60
46356;DHT22;32066;49.474;11.106;2024-02-28T11:50:53;11.50;91.50
46356;DHT22;32066;49.474;11.106;2024-02-28T11:53:27;11.50;91.50
46356;DHT22;32066;49.474;11.106;2024-02-28T11:55:56;11.50;91.60
46356;DHT22;32066;49.474;11.106;2024-02-28T11:58:25;11.50;91.50
46356;DHT22;32066;49.474;11.106;2024-02-28T12:00:53;11.50;91.50
46356;DHT22;32066;49.474;11.106;2024-02-28T12:03:23;11.50;91.70
46356;DHT22;32066;49.474;11.106;2024-02-28T12:05:52;11.50;91.50
46356;DHT22;32066;49.474;11.106;2024-02-28T12:08:21;11.50;91.50
46356;DHT22;32066;49.474;11.106;2024-02-28T12:10:52;11.60;91.60
46356;DHT22;32066;49.474;11.106;2024-02-28T12:13:23;11.60;91.50
46356;DHT22;32066;49.474;11.106;2024-02-28T12:15:51;11.60;91.60
46356;DHT22;32066;49.474;11.106;2024-02-28T12:18:20;11.60;91.60
46356;DHT22;32066;49.474;11.106;2024-02-28T12:20:49;11.60;91.60
46356;DHT22;32066;49.474;11.106;2024-02-28T12:23:17;11.60;91.50
46356;DHT22;32066;49.474;11.106;2024-02-28T12:25:46;11.60;91.60
46356;DHT22;32066;49.474;11.106;2024-02-28T12:28:18;11.60;91.90
46356;DHT22;32066;49.474;11.106;2024-02-28T12:30:47;11.60;91.50
46356;DHT22;32066;49.474;11.106;2024-02-28T12:33:16;11.60;91.50
46356;DHT22;32066;49.474;11.106;2024-02-28T12:35:44;11.60;91.50
46356;DHT22;32066;49.474;11.106;2024-02-28T12:38:13;11.60;91.60
46356;DHT22;32066;49.474;11.106;2024-02-28T12:40:42;11.60;91.50
46356;DHT22;32066;49.474;11.106;2024-02-28T12:43:11;11.60;91.50
46356;DHT22;32066;49.474;11.106;2024-02-28T12:45:42;11.60;91.50
46356;DHT22;32066;49.474;11.106;2024-02-28T12:48:11;11.60;91.50
46356;DHT22;32066;49.474;11.106;2024-02-28T12:50:39;11.70;91.50
46356;DHT22;32066;49.474;11.106;2024-02-28T12:53:08;11.70;91.50
46356;DHT22;32066;49.474;11.106;2024-02-28T12:55:37;11.70;91.40
46356;DHT22;32066;49.474;11.106;2024-02-28T12:58:05;11.70;91.40
46356;DHT22;32066;49.474;11.106;2024-02-28T13:00:34;11.70;91.50
46356;DHT22;32066;49.474;11.106;2024-02-28T13:03:05;11.70;91.40
46356;DHT22;32066;49.474;11.106;2024-02-28T13:05:34;11.70;91.40
46356;DHT22;32066;49.474;11.106;2024-02-28T13:08:03;11.70;91.40
46356;DHT22;32066;49.474;11.106;2024-02-28T13:10:32;11.70;91.40
46356;DHT22;32066;49.474;11.106;2024-02-28T13:13:05;11.70;91.30
46356;DHT22;32066;49.474;11.106;2024-02-28T13:15:34;11.70;91.30
46356;DHT22;32066;49.474;11.106;2024-02-28T13:18:05;11.70;91.30
46356;DHT22;32066;49.474;11.106;2024-02-28T13:20:36;11.80;91.30
46356;DHT22;32066;49.474;11.106;2024-02-28T13:23:06;11.70;91.40
46356;DHT22;32066;49.474;11.106;2024-02-28T13:25:36;11.80;91.40
46356;DHT22;32066;49.474;11.106;2024-02-28T13:28:05;11.80;91.30
46356;DHT22;32066;49.474;11.106;2024-02-28T13:30:34;11.80;91.60
46356;DHT22;32066;49.474;11.106;2024-02-28T13:33:07;11.80;91.30
46356;DHT22;32066;49.474;11.106;2024-02-28T13:35:35;11.80;91.30
46356;DHT22;32066;49.474;11.106;2024-02-28T13:38:05;11.80;91.20
46356;DHT22;32066;49.474;11.106;2024-02-28T13:40:33;11.80;91.20
46356;DHT22;32066;49.474;11.106;2024-02-28T13:43:03;11.80;91.20
46356;DHT22;32066;49.474;11.106;2024-02-28T13:45:31;11.80;91.20
46356;DHT22;32066;49.474;11.106;2024-02-28T13:48:00;11.80;91.20
46356;DHT22;32066;49.474;11.106;2024-02-28T13:50:34;11.90;91.20
46356;DHT22;32066;49.474;11.106;2024-02-28T13:53:03;11.80;91.10
46356;DHT22;32066;49.474;11.106;2024-02-28T13:55:31;11.80;91.10
46356;DHT22;32066;49.474;11.106;2024-02-28T13:58:00;11.90;91.10
46356;DHT22;32066;49.474;11.106;2024-02-28T14:00:29;11.90;91.10
46356;DHT22;32066;49.474;11.106;2024-02-28T14:02:58;11.90;91.10
46356;DHT22;32066;49.474;11.106;2024-02-28T14:05:26;12.00;91.10
46356;DHT22;32066;49.474;11.106;2024-02-28T14:07:58;12.00;91.00
46356;DHT22;32066;49.474;11.106;2024-02-28T14:10:29;12.10;91.20
46356;DHT22;32066;49.474;11.106;2024-02-28T14:12:58;12.10;91.20
46356;DHT22;32066;49.474;11.106;2024-02-28T14:15:27;12.20;91.20
46356;DHT22;32066;49.474;11.106;2024-02-28T14:17:55;12.20;91.10
46356;DHT22;32066;49.474;11.106;2024-02-28T14:20:24;12.30;91.10
46356;DHT22;32066;49.474;11.106;2024-02-28T14:22:53;12.30;91.00
46356;DHT22;32066;49.474;11.106;2024-02-28T14:25:26;12.40;91.00
46356;DHT22;32066;49.474;11.106;2024-02-28T14:27:56;12.40;91.00
46356;DHT22;32066;49.474;11.106;2024-02-28T14:30:25;12.50;90.80
46356;DHT22;32066;49.474;11.106;2024-02-28T14:32:54;12.50;90.70
46356;DHT22;32066;49.474;11.106;2024-02-28T14:35:23;12.60;90.70
46356;DHT22;32066;49.474;11.106;2024-02-28T14:37:51;12.60;90.70
46356;DHT22;32066;49.474;11.106;2024-02-28T14:40:20;12.80;90.90
46356;DHT22;32066;49.474;11.106;2024-02-28T14:42:51;12.90;91.00
46356;DHT22;32066;49.474;11.106;2024-02-28T14:45:20;13.10;91.00
46356;DHT22;32066;49.474;11.106;2024-02-28T14:47:50;13.40;91.00
46356;DHT22;32066;49.474;11.106;2024-02-28T14:50:18;13.60;90.70
46356;DHT22;32066;49.474;11.106;2024-02-28T14:52:47;13.80;90.30
46356;DHT22;32066;49.474;11.106;2024-02-28T14:55:16;14.00;90.00
46356;DHT22;32066;49.474;11.106;2024-02-28T14:57:44;14.20;89.50
46356;DHT22;32066;49.474;11.106;2024-02-28T15:00:17;14.40;88.60
46356;DHT22;32066;49.474;11.106;2024-02-28T15:02:45;14.50;88.20
46356;DHT22;32066;49.474;11.106;2024-02-28T15:05:14;14.60;87.10
46356;DHT22;32066;49.474;11.106;2024-02-28T15:07:43;14.60;86.40
46356;DHT22;32066;49.474;11.106;2024-02-28T15:10:11;14.70;86.30
46356;DHT22;32066;49.474;11.106;2024-02-28T15:12:40;14.70;85.80
46356;DHT22;32066;49.474;11.106;2024-02-28T15:15:10;14.70;85.70
46356;DHT22;32066;49.474;11.106;2024-02-28T15:17:43;14.60;85.30
46356;DHT22;32066;49.474;11.106;2024-02-28T15:20:11;14.70;85.40
46356;DHT22;32066;49.474;11.106;2024-02-28T15:22:40;14.60;85.00
46356;DHT22;32066;49.474;11.106;2024-02-28T15:25:11;14.60;85.00
46356;DHT22;32066;49.474;11.106;2024-02-28T15:27:40;14.60;84.30